Flight Track Log - Related Links

Times and Time Zones

All times are in EDT time to prevent confusion due to time zone crossing. See the EGF4154 flight status page for this flight to view local times or setup timezone preferences in your user account.

Time Position Orientation Groundspeed Altitude Reporting Facility
EDT Latitude Longitude Course Direction KTS MPH feet Rate Location/Type
Wed 03:18:48 PM 36.1956 -95.9150 58° Northeast 163 188 1,500  Level Kansas City Center
Wed 03:19:18 PM 36.1956 -95.9408 270° West 169 194 2,300 2,093 Climbing Kansas City Center
Wed 03:20:14 PM 36.2025 -96.0011 278° West 209 241 4,500 2,420 Climbing Kansas City Center
Wed 03:21:00 PM 36.3500 -95.5335 64° Northeast  Level FlightAware Approximate
Wed 03:21:17 PM 36.2508 -95.9756 23° Northeast 225 259 7,100  Level Kansas City Center
Wed 03:22:00 PM 36.4017 -95.4133 58° Northeast  Level FlightAware Approximate
Wed 03:22:19 PM 36.2819 -95.8950 64° Northeast 254 292 9,100  Level Kansas City Center
Wed 03:23:00 PM 36.4596 -95.2974 58° Northeast  Level FlightAware Approximate
Wed 03:23:22 PM 36.3197 -95.8078 62° Northeast 279 321 10,900  Level Kansas City Center
Wed 03:24:00 PM 36.5101 -95.1799 58° Northeast  Level FlightAware Approximate
Wed 03:24:23 PM 36.3717 -95.6875 62° Northeast 322 371 12,800  Level Kansas City Center
Wed 03:25:26 PM 36.4194 -95.5794 61° Northeast 346 398 14,400 1,403 Climbing Kansas City Center
Wed 03:26:27 PM 36.4656 -95.4686 63° Northeast 371 427 15,700 1,377 Climbing Kansas City Center
Wed 03:27:28 PM 36.5181 -95.3481 62° Northeast 391 450 17,200 1,200 Climbing Kansas City Center
Wed 03:28:32 PM 36.5714 -95.2225 62° Northeast 406 467 18,200 1,258 Climbing Kansas City Center
Wed 03:29:32 PM 36.6347 -95.0739 62° Northeast 422 486 19,800 1,537 Climbing Kansas City Center
Wed 03:30:33 PM 36.6914 -94.9389 62° Northeast 430 495 21,300 1,248 Climbing Kansas City Center
Wed 03:31:37 PM 36.7511 -94.7986 62° Northeast 443 510 22,400 1,008 Climbing Kansas City Center
Wed 03:32:38 PM 36.8119 -94.6536 62° Northeast 457 526 23,400 1,104 Climbing Kansas City Center
Wed 03:33:42 PM 36.8872 -94.4736 62° Northeast 479 551 24,700 1,113 Climbing Kansas City Center
Wed 03:34:42 PM 36.9503 -94.3233 62° Northeast 487 560 25,700 1,016 Climbing Kansas City Center
Wed 03:35:46 PM 37.0147 -94.1686 62° Northeast 495 570 26,800 1,016 Climbing Kansas City Center
Wed 03:36:46 PM 37.0781 -94.0139 63° Northeast 498 573 27,800 1,016 Climbing Kansas City Center
Wed 03:37:50 PM 37.1442 -93.8539 63° Northeast 500 575 28,900 1,008 Climbing Kansas City Center
Wed 03:38:51 PM 37.2078 -93.6981 63° Northeast 501 577 29,900 1,033 Climbing Kansas City Center
Wed 03:39:52 PM 37.2722 -93.5403 63° Northeast 505 581 31,000 1,016 Climbing Kansas City Center
Wed 03:40:55 PM 37.3386 -93.3808 62° Northeast 511 588 32,000 1,113 Climbing Kansas City Center
Wed 03:41:56 PM 37.4592 -93.2394 43° Northeast 493 567 33,300 1,113 Climbing Kansas City Center
Wed 03:42:59 PM 37.5675 -93.1381 37° Northeast 483 556 34,300 968 Climbing Kansas City Center
Wed 03:44:00 PM 37.6778 -93.0389 35° Northeast 484 557 35,300 960 Climbing Kansas City Center
Wed 03:45:04 PM 37.7858 -92.9358 37° Northeast 482 555 36,300 816 Climbing Kansas City Center
Wed 03:46:05 PM 37.8942 -92.8350 36° Northeast 479 551 37,000 344 Climbing Kansas City Center
Wed 03:47:06 PM 38.0056 -92.7311 36° Northeast 480 552 37,000  Level Kansas City Center
Wed 03:48:09 PM 38.1142 -92.6261 37° Northeast 486 559 37,000  Level Kansas City Center
Wed 03:49:09 PM 38.2061 -92.5408 36° Northeast 490 564 37,000  Level Kansas City Center
Wed 03:50:13 PM 38.3408 -92.4139 36° Northeast 496 571 37,000  Level Kansas City Center
Wed 03:51:16 PM 38.4531 -92.3050 37° Northeast 501 577 37,000  Level Kansas City Center
Wed 03:52:17 PM 38.5850 -92.1778 37° Northeast 494 568 37,000  Level Kansas City Center
Wed 03:53:17 PM 38.6944 -92.0733 37° Northeast 490 564 37,000  Level Kansas City Center
Wed 03:54:21 PM 38.8033 -91.9703 36° Northeast 486 559 37,000  Level Kansas City Center
Wed 03:55:22 PM 38.9117 -91.8647 37° Northeast 487 560 37,000  Level Kansas City Center
Wed 03:56:26 PM 39.0203 -91.7569 38° Northeast 489 563 37,000  Level Kansas City Center
Wed 03:57:26 PM 39.1206 -91.6608 37° Northeast 487 560 37,000  Level Kansas City Center
Wed 03:58:30 PM 39.2525 -91.5331 37° Northeast 491 565 37,000  Level Kansas City Center
Wed 03:59:31 PM 39.3656 -91.4231 37° Northeast 501 577 37,000 -295 Level Kansas City Center
Wed 04:00:32 PM 39.4781 -91.3117 37° Northeast 505 581 36,400 -720 Descending Kansas City Center
Wed 04:01:36 PM 39.5922 -91.1981 37° Northeast 510 587 35,500 -919 Descending Kansas City Center
Wed 04:02:36 PM 39.7061 -91.0836 38° Northeast 515 593 34,500 -1,016 Descending Kansas City Center
Wed 04:03:40 PM 39.8294 -90.9597 38° Northeast 513 590 33,400 -720 Descending Kansas City Center
Wed 04:04:41 PM 39.9381 -90.8511 37° Northeast 499 574 33,000 -151 Descending Kansas City Center
Wed 04:06:19 PM 40.1092 -90.6794 37° Northeast 493 567 33,000  Level Chicago Center
Wed 04:06:45 PM 40.1544 -90.6319 39° Northeast 493 567 33,000  Level Kansas City Center
Wed 04:07:21 PM 40.2194 -90.5667 37° Northeast 491 565 33,000  Level Chicago Center
Wed 04:08:23 PM 40.3514 -90.4322 38° Northeast 500 575 33,000  Level Chicago Center
Wed 04:09:25 PM 40.4608 -90.3183 38° Northeast 501 577 33,000  Level Chicago Center
Wed 04:10:28 PM 40.5617 -90.2158 38° Northeast 497 572 33,000  Level Chicago Center
Wed 04:11:30 PM 40.6931 -90.0789 38° Northeast 504 580 33,000 -823 Level Chicago Center
Wed 04:12:32 PM 40.8028 -89.9642 38° Northeast 504 580 31,300 -1,887 Descending Chicago Center
Wed 04:13:34 PM 40.9067 -89.8542 39° Northeast 486 559 29,100 -2,177 Descending Chicago Center
Wed 04:14:36 PM 41.0089 -89.7464 38° Northeast 484 557 26,800 -2,274 Descending Chicago Center
Wed 04:15:38 PM 41.1125 -89.6389 38° Northeast 474 545 24,400 -2,274 Descending Chicago Center
Wed 04:16:40 PM 41.2069 -89.4781 52° Northeast 468 539 22,100 -2,032 Descending Chicago Center
Wed 04:17:42 PM 41.2653 -89.3292 62° Northeast 459 528 20,200 -1,984 Descending Chicago Center
Wed 04:18:44 PM 41.3217 -89.1892 62° Northeast 439 505 18,000 -2,081 Descending Chicago Center
Wed 04:19:46 PM 41.3747 -89.0531 63° Northeast 422 486 15,900 -2,081 Descending Chicago Center
Wed 04:20:48 PM 41.4292 -88.9192 61° Northeast 414 476 13,700 -2,016 Descending Chicago Center
Wed 04:21:51 PM 41.4781 -88.7944 62° Northeast 387 445 11,700 -1,296 Descending Chicago Center
Wed 04:22:53 PM 41.5358 -88.6481 62° Northeast 369 425 11,000 -387 Descending Chicago Center
Wed 04:23:55 PM 41.5825 -88.5292 62° Northeast 363 418 10,900 -484 Descending Chicago Center
Wed 04:24:57 PM 41.6392 -88.4150 56° Northeast 367 422 10,000 -435 Descending Chicago Center
Wed 04:25:59 PM 41.7011 -88.3058 53° Northeast 365 420 10,000  Level Chicago Center
Wed 04:27:02 PM 41.7647 -88.1986 51° Northeast 365 420 10,000  Level Chicago Center
Wed 04:28:03 PM 41.8219 -88.0883 55° Northeast 358 412 10,000 -634 Level Chicago Center
Wed 04:29:05 PM 41.8439 -87.9817 75° East 299 344 8,700 -1,306 Descending Chicago Center
Wed 04:30:07 PM 41.8714 -87.8628 73° East 282 325 7,300 -1,121 Descending Chicago Center
Wed 04:30:36 PM 41.8833 -87.8167 71° East 240 276 7,000 -1,348 Descending Chicago TRACON
Wed 04:31:36 PM 41.8833 -87.7333 90° East 230 265 5,300 -1,388 Descending Chicago TRACON
Wed 04:32:37 PM 41.9167 -87.6667 56° Northeast 235 270 4,200 -893 Descending Chicago TRACON
Wed 04:33:37 PM 41.9500 -87.7167 312° West 217 250 3,500 -700 Descending Chicago TRACON

Login

Don't have an account? Register now (free) for customized features, flight alerts, and more!